Nearby METAR Reports

 

KMTN - Baltimore/Martin, Maryland, USA
Distance from station: SSE 8mi, 13km
Updated: Sun, 07-Feb-2016 8:45am EST
Mostly cloudy
Mostly cloudy
 Wind from calm
Wind: Calm
Temperature: 28°F , -2°C
Dew Point: 28°F , -2°C
Humidity: 100%
Barometer: 30.21 inHg , 1023 hPa
Clouds: Mostly cloudy
Visibility: 7 miles , 11 km
Cloud details: Mostly cloudy 18000 ft
2016/02/07 13:45 KMTN 071345Z 00000KT 7SM BKN180 M02/M02 A3021
KDMH - Baltimore/Dwntwn, Maryland, USA
Distance from station: SW 12mi, 19km
Updated: Sun, 07-Feb-2016 8:54am EST

 
Temperature: 32°F , 0°C
Dew Point: 25°F , -4°C
Humidity: 75%
Barometer: 30.20 inHg , 1022.7 hPa
2016/02/07 13:54 KDMH 071354Z AUTO 00/M04 A3020 RMK AO1 SLP226 T00001039
 
KBWI - Balto/Wash Intl, Maryland, USA
Distance from station: SSW 20mi, 33km
Updated: Sun, 07-Feb-2016 8:54am EST
Mostly cloudy
Mostly cloudy
 Wind from varies
Wind: varies 3 mph , 6 km/h
Temperature: 28°F , -2°C
Dew Point: 25°F , -4°C
Humidity: 86%
Barometer: 30.17 inHg , 1021.7 hPa
Clouds: Mostly cloudy
Visibility: 7 miles , 11 km
Cloud details: Mostly cloudy 18000 ft
2016/02/07 13:54 KBWI 071354Z VRB03KT 7SM BKN180 M02/M04 A3017 RMK AO2 SLP217 T10171039
KDMW - Carroll Cnty, Maryland, USA
Distance from station: WNW 30mi, 48km
Updated: Sun, 07-Feb-2016 9:25am EST
Clear
Clear
 Wind from calm
Wind: Calm
Temperature: 34°F , 1°C
Dew Point: 28°F , -2°C
Humidity: 81%
Barometer: 30.14 inHg , 1020.7 hPa
Clouds: Clear
Visibility: 10 miles , 16 km
2016/02/07 14:25 KDMW 071425Z AUTO 00000KT 10SM CLR 01/M02 A3014 RMK AO2
 
KNAK - Annapolis/Naval, Maryland, USA
Distance from station: S 30mi, 48km
Updated: Sun, 07-Feb-2016 8:54am EST
Clear
Clear
 Wind from NNW
Wind: NNW 7 mph , 11 km/h
Temperature: 34°F , 1°C
Wind Chill: 28°F , -2°C
Dew Point: 28°F , -2°C
Humidity: 81%
Barometer: 30.17 inHg , 1021.7 hPa
Clouds: Clear
Visibility: 10 miles , 16 km
2016/02/07 13:54 KNAK 071354Z AUTO 33006KT 10SM CLR 01/M02 A3017 RMK AO2 SLP218 T00061017
KW29 - Stevensville, Maryland, USA
Distance from station: SSE 31mi, 50km
Updated: Sun, 07-Feb-2016 9:27am EST

 Wind from calm
Wind: Calm
Temperature: 36°F , 2°C
Dew Point: 30°F , -1°C
Humidity: 81%
Barometer: 30.19 inHg , 1022.4 hPa
Visibility: 10 miles , 16 km
2016/02/07 14:27 KW29 071427Z AUTO 00000KT 10SM 02/M01 A3019 RMK AO1
 
KCGS - College Park, Maryland, USA
Distance from station: SW 38mi, 61km
Updated: Sun, 07-Feb-2016 9:25am EST
Clear
Clear
 Wind from calm
Wind: Calm
Temperature: 32°F , 0°C
Dew Point: 28°F , -2°C
Humidity: 87%
Barometer: 30.19 inHg , 1022.4 hPa
Clouds: Clear
Visibility: 10 miles , 16 km
2016/02/07 14:25 KCGS 071425Z AUTO 00000KT 10SM CLR 00/M02 A3019 RMK AO1
KGAI - Gaithersburg, Maryland, USA
Distance from station: WSW 40mi, 65km
Updated: Sun, 07-Feb-2016 9:35am EST
Clear
Clear
 Wind from calm
Wind: Calm
Temperature: 30°F , -1°C
Dew Point: 25°F , -4°C
Humidity: 80%
Barometer: 30.21 inHg , 1023 hPa
Clouds: Clear
Visibility: 10 miles , 16 km
2016/02/07 14:35 KGAI 071435Z AUTO 00000KT 10SM CLR M01/M04 A3021 RMK AO1
 
KTHV - York, Pennsylvania, USA
Distance from station: NNW 40mi, 65km
Updated: Sun, 07-Feb-2016 8:53am EST
Clear
Clear
 Wind from E
Wind: E 3 mph , 6 km/h
Temperature: 28°F , -2°C
Dew Point: 21°F , -6°C
Humidity: 74%
Barometer: 30.17 inHg , 1021.7 hPa
Clouds: Clear
Visibility: 9 miles , 14 km
2016/02/07 13:53 KTHV 071353Z AUTO 10003KT 9SM CLR M02/M06 A3017 RMK AO2 SLP225 T10221056
KFDK - Frederick, Maryland, USA
Distance from station: W 47mi, 75km
Updated: Sun, 07-Feb-2016 8:50am EST
Clear
Clear
 Wind from calm
Wind: Calm
Temperature: 25°F , -4°C
Dew Point: 25°F , -4°C
Humidity: 100%
Barometer: 30.21 inHg , 1023 hPa
Clouds: Clear
Visibility: 10 miles , 16 km
2016/02/07 13:50 KFDK 071350Z 00000KT 10SM SKC M04/M04 A3021
 
KESN - Easton/Newnam, Maryland, USA
Distance from station: SSE 48mi, 78km
Updated: Sun, 07-Feb-2016 8:45am EST
Partly cloudy
Partly cloudy
 Wind from calm
Wind: Calm
Temperature: 36°F , 2°C
Dew Point: 36°F , 2°C
Humidity: 100%
Barometer: 30.21 inHg , 1023 hPa
Clouds: Partly cloudy
Visibility: 10 miles , 16 km
Cloud details: Partly cloudy 25000 ft
2016/02/07 13:45 KESN 071345Z 00000KT 10SM SCT250 02/02 A3021
KDCA - Washington/Natl, Washington D.c., USA
Distance from station: SW 49mi, 79km
Updated: Sun, 07-Feb-2016 8:52am EST
Mostly cloudy
Mostly cloudy
 Wind from NE
Wind: NE 7 mph , 11 km/h
Temperature: 34°F , 1°C
Wind Chill: 28°F , -2°C
Dew Point: 27°F , -3°C
Humidity: 75%
Barometer: 30.18 inHg , 1022 hPa
Clouds: Mostly cloudy
Visibility: 10 miles , 16 km
Cloud details: Few Clouds 15000 ft
Mostly cloudy 25000 ft
2016/02/07 13:52 KDCA 071352Z 04006KT 10SM FEW150 BKN250 01/M03 A3018 RMK AO2 SLP219 T00061028
 
KLNS - Lancaster, Pennsylvania, USA
Distance from station: N 49mi, 79km
Updated: Sun, 07-Feb-2016 8:53am EST
Mist, Clear
Mist, Clear
 Wind from S
Wind: S 3 mph , 6 km/h
Temperature: 28°F , -2°C
Dew Point: 25°F , -4°C
Humidity: 86%
Barometer: 30.18 inHg , 1022 hPa
Summary: Mist
Clouds: Clear
Visibility: 6 miles , 10 km
2016/02/07 13:53 KLNS 071353Z AUTO 19003KT 6SM BR CLR M02/M04 A3018 RMK AO2 SLP224 T10221044
KILG - Wilmington, Delaware, USA
Distance from station: ENE 50mi, 81km
Updated: Sun, 07-Feb-2016 8:51am EST
Clear
Clear
 Wind from SSW
Wind: SSW 3 mph , 6 km/h
Temperature: 30°F , -1°C
Dew Point: 27°F , -3°C
Humidity: 86%
Barometer: 30.20 inHg , 1022.7 hPa
Clouds: Clear
Visibility: 9 miles , 14 km
2016/02/07 13:51 KILG 071351Z 21003KT 9SM CLR M01/M03 A3020 RMK AO2 SLP228 T10111028